Valkyrie — WDE9186 — position and weather

sailwx.info

Track history (hours):
 
Tides and Currents Weather Stations Pressure Air Temp Water Temp Dewpoint Dewpoint Depression Visibility Wind Speed Wind Dir Waves Ship Positions

Valkyrie

Owner: Marina Management Corp., Pensacola, FL. More information available from US FCC via Universal Licensing System and Coast Guard Vessel Documentation Center.

Last reported at 2017-Oct-09 14:54 UTC. Time now 2017-Nov-20 23:03 UTC.
Position N 30°24' W 086°51'.
Warning: this ship's position is 42 days out of date.

Length 23 m; draft 2.1 m.

Type: Pleasure craft. MMSI: 367414480.

Date/timePositionNaut miles runAvg speedWind from/ knotsBaromVisibWave heightAir tempDewpointWater temp
2017-Oct-09 14:54N 30°24' W 086°51'4 9.1
2017-Oct-09 14:29N 30°24' W 086°47'13 0.7
2017-Oct-08 20:00N 30°25' W 086°33'4 8.6
2017-Oct-08 19:30N 30°26' W 086°28'4 8.6
2017-Oct-08 19:00N 30°26' W 086°23'4 8.8
2017-Oct-08 18:30N 30°25' W 086°18'3 0.6
2017-Oct-08 14:00N 30°24' W 086°15'0 0.0
2017-Oct-08 13:21N 30°24' W 086°15'0 0.0
2017-Oct-08 12:59N 30°24' W 086°15'0 0.0
2017-Oct-08 12:03N 30°24' W 086°15'0 0.0
2017-Oct-08 08:57N 30°24' W 086°15'0 0.0
2017-Oct-08 08:27N 30°24' W 086°15'0 0.0
2017-Oct-08 07:43N 30°24' W 086°15'0 0.0
2017-Oct-08 07:29N 30°24' W 086°15'0 0.0
2017-Oct-08 06:58N 30°24' W 086°15'0 0.0
2017-Oct-08 06:24N 30°24' W 086°15'0 0.0
2017-Oct-08 05:57N 30°24' W 086°15'0 0.0
2017-Oct-08 05:21N 30°24' W 086°15'0 0.0
2017-Oct-08 04:54N 30°24' W 086°15'0 0.0
2017-Oct-08 04:24N 30°24' W 086°15'0 0.0
2017-Oct-08 03:18N 30°24' W 086°15'0 0.0
2017-Oct-08 02:56N 30°24' W 086°15'0 0.0
2017-Oct-08 02:20N 30°24' W 086°15'0 0.0
2017-Oct-08 01:51N 30°24' W 086°15'0 0.0
2017-Oct-08 00:34N 30°24' W 086°15'0 0.0
2017-Oct-08 00:19N 30°24' W 086°15'0 0.0
2017-Oct-07 23:52N 30°24' W 086°15'0 0.0
2017-Oct-07 23:30N 30°24' W 086°15'0 0.0
2017-Oct-07 22:55N 30°24' W 086°15'0 0.0
2017-Oct-07 22:26N 30°24' W 086°15'0 0.0
2017-Oct-07 21:58N 30°24' W 086°15'0 0.0
2017-Oct-07 21:27N 30°24' W 086°15'0 0.0
2017-Oct-07 20:48N 30°24' W 086°15'0 0.0
2017-Oct-07 20:30N 30°24' W 086°15'1 1.3
2017-Oct-07 19:35N 30°24' W 086°16'1 6.9
2017-Oct-07 19:28N 30°24' W 086°17'2 4.2
2017-Oct-07 19:00N 30°26' W 086°19'3 5.4
2017-Oct-07 18:30N 30°26' W 086°22'4 7.8
2017-Oct-07 18:00N 30°26' W 086°26'5 9.0
2017-Oct-07 17:28N 30°25' W 086°32'13 7.4
2017-Oct-07 15:42N 30°24' W 086°47'2 8.7
2017-Oct-07 15:30N 30°24' W 086°49'  
Track history (hours):
 
Tides and Currents Weather Stations Pressure Air Temp Water Temp Dewpoint Dewpoint Depression Visibility Wind Speed Wind Dir Waves Ship Positions

Valkyrie

Owner: Marina Management Corp., Pensacola, FL. More information available from US FCC via Universal Licensing System and Coast Guard Vessel Documentation Center.

Last reported at 2017-Oct-09 14:54 UTC. Time now 2017-Nov-20 23:03 UTC.
Position N 30°24' W 086°51'.
Warning: this ship's position is 42 days out of date.

Length 23 m; draft 2.1 m.

Type: Pleasure craft. MMSI: 367414480.

Date/timePositionNaut miles runAvg speedWind from/ knotsBaromVisibWave heightAir tempDewpointWater temp
2017-Oct-09 14:54N 30°24' W 086°51'4 9.1
2017-Oct-09 14:29N 30°24' W 086°47'13 0.7
2017-Oct-08 20:00N 30°25' W 086°33'4 8.6
2017-Oct-08 19:30N 30°26' W 086°28'4 8.6
2017-Oct-08 19:00N 30°26' W 086°23'4 8.8
2017-Oct-08 18:30N 30°25' W 086°18'3 0.6
2017-Oct-08 14:00N 30°24' W 086°15'0 0.0
2017-Oct-08 13:21N 30°24' W 086°15'0 0.0
2017-Oct-08 12:59N 30°24' W 086°15'0 0.0
2017-Oct-08 12:03N 30°24' W 086°15'0 0.0
2017-Oct-08 08:57N 30°24' W 086°15'0 0.0
2017-Oct-08 08:27N 30°24' W 086°15'0 0.0
2017-Oct-08 07:43N 30°24' W 086°15'0 0.0
2017-Oct-08 07:29N 30°24' W 086°15'0 0.0
2017-Oct-08 06:58N 30°24' W 086°15'0 0.0
2017-Oct-08 06:24N 30°24' W 086°15'0 0.0
2017-Oct-08 05:57N 30°24' W 086°15'0 0.0
2017-Oct-08 05:21N 30°24' W 086°15'0 0.0
2017-Oct-08 04:54N 30°24' W 086°15'0 0.0
2017-Oct-08 04:24N 30°24' W 086°15'0 0.0
2017-Oct-08 03:18N 30°24' W 086°15'0 0.0
2017-Oct-08 02:56N 30°24' W 086°15'0 0.0
2017-Oct-08 02:20N 30°24' W 086°15'0 0.0
2017-Oct-08 01:51N 30°24' W 086°15'0 0.0
2017-Oct-08 00:34N 30°24' W 086°15'0 0.0
2017-Oct-08 00:19N 30°24' W 086°15'0 0.0
2017-Oct-07 23:52N 30°24' W 086°15'0 0.0
2017-Oct-07 23:30N 30°24' W 086°15'0 0.0
2017-Oct-07 22:55N 30°24' W 086°15'0 0.0
2017-Oct-07 22:26N 30°24' W 086°15'0 0.0
2017-Oct-07 21:58N 30°24' W 086°15'0 0.0
2017-Oct-07 21:27N 30°24' W 086°15'0 0.0
2017-Oct-07 20:48N 30°24' W 086°15'0 0.0
2017-Oct-07 20:30N 30°24' W 086°15'1 1.3
2017-Oct-07 19:35N 30°24' W 086°16'1 6.9
2017-Oct-07 19:28N 30°24' W 086°17'2 4.2
2017-Oct-07 19:00N 30°26' W 086°19'3 5.4
2017-Oct-07 18:30N 30°26' W 086°22'4 7.8
2017-Oct-07 18:00N 30°26' W 086°26'5 9.0
2017-Oct-07 17:28N 30°25' W 086°32'13 7.4
2017-Oct-07 15:42N 30°24' W 086°47'2 8.7
2017-Oct-07 15:30N 30°24' W 086°49'  

Dump ship's entire track history